sensor_id;sensor_type;location;lat;lon;timestamp;pressure;altitude;pressure_sealevel;temperature;humidity
14120;BME280;7138;49.246;9.100;2022-08-03T00:01:43;98713.06;;;23.56;67.37
14120;BME280;7138;49.246;9.100;2022-08-03T00:04:10;98706.41;;;23.49;67.40
14120;BME280;7138;49.246;9.100;2022-08-03T00:06:36;98706.41;;;23.49;67.99
14120;BME280;7138;49.246;9.100;2022-08-03T00:09:03;98700.44;;;23.46;68.00
14120;BME280;7138;49.246;9.100;2022-08-03T00:11:29;98704.16;;;23.42;67.95
14120;BME280;7138;49.246;9.100;2022-08-03T00:13:55;98706.06;;;23.38;68.37
14120;BME280;7138;49.246;9.100;2022-08-03T00:16:23;98703.59;;;23.35;69.15
14120;BME280;7138;49.246;9.100;2022-08-03T00:18:50;98709.81;;;23.34;69.50
14120;BME280;7138;49.246;9.100;2022-08-03T00:21:16;98709.19;;;23.29;69.60
14120;BME280;7138;49.246;9.100;2022-08-03T00:23:42;98705.09;;;23.23;69.45
14120;BME280;7138;49.246;9.100;2022-08-03T00:26:08;98717.53;;;23.21;69.76
14120;BME280;7138;49.246;9.100;2022-08-03T00:28:34;98708.66;;;23.05;70.16
14120;BME280;7138;49.246;9.100;2022-08-03T00:31:00;98701.16;;;22.98;69.54
14120;BME280;7138;49.246;9.100;2022-08-03T00:33:27;98704.72;;;22.97;69.73
14120;BME280;7138;49.246;9.100;2022-08-03T00:35:53;98702.38;;;22.91;70.09
14120;BME280;7138;49.246;9.100;2022-08-03T00:38:19;98701.94;;;22.82;70.50
14120;BME280;7138;49.246;9.100;2022-08-03T00:40:46;98697.88;;;22.75;70.71
14120;BME280;7138;49.246;9.100;2022-08-03T00:43:12;98694.63;;;22.70;70.86
14120;BME280;7138;49.246;9.100;2022-08-03T00:45:39;98700.06;;;22.67;71.01
14120;BME280;7138;49.246;9.100;2022-08-03T00:48:10;98693.19;;;22.63;71.54
14120;BME280;7138;49.246;9.100;2022-08-03T00:50:40;98695.88;;;22.62;70.86
14120;BME280;7138;49.246;9.100;2022-08-03T00:53:09;98685.94;;;22.50;71.13
14120;BME280;7138;49.246;9.100;2022-08-03T00:55:37;98701.69;;;22.51;71.22
14120;BME280;7138;49.246;9.100;2022-08-03T00:58:03;98698.34;;;22.48;71.32
14120;BME280;7138;49.246;9.100;2022-08-03T01:00:33;98699.28;;;22.47;71.29
14120;BME280;7138;49.246;9.100;2022-08-03T01:03:02;98702.16;;;22.42;70.93
14120;BME280;7138;49.246;9.100;2022-08-03T01:05:28;98696.00;;;22.42;71.34
14120;BME280;7138;49.246;9.100;2022-08-03T01:08:06;98697.78;;;22.41;71.39
14120;BME280;7138;49.246;9.100;2022-08-03T01:10:41;98690.31;;;22.32;nan
14120;BME280;7138;49.246;9.100;2022-08-03T01:13:21;98698.09;;;22.35;72.26
14120;BME280;7138;49.246;9.100;2022-08-03T01:15:58;98695.75;;;22.29;72.55
14120;BME280;7138;49.246;9.100;2022-08-03T01:18:31;98694.41;;;22.20;72.18
14120;BME280;7138;49.246;9.100;2022-08-03T01:21:09;98696.28;;;22.18;72.68
14120;BME280;7138;49.246;9.100;2022-08-03T01:23:53;98690.84;;;22.21;73.11
14120;BME280;7138;49.246;9.100;2022-08-03T01:26:53;98687.41;;;22.19;72.63
14120;BME280;7138;49.246;9.100;2022-08-03T01:29:51;98667.66;;;22.11;73.24
14120;BME280;7138;49.246;9.100;2022-08-03T01:32:33;98685.03;;;22.15;73.15
14120;BME280;7138;49.246;9.100;2022-08-03T01:35:03;98683.25;;;22.15;74.21
14120;BME280;7138;49.246;9.100;2022-08-03T01:37:38;98675.69;;;22.08;74.09
14120;BME280;7138;49.246;9.100;2022-08-03T01:40:07;98684.44;;;22.08;73.30
14120;BME280;7138;49.246;9.100;2022-08-03T01:42:35;98669.09;;;21.99;73.15
14120;BME280;7138;49.246;9.100;2022-08-03T01:45:08;98673.91;;;22.08;72.85
14120;BME280;7138;49.246;9.100;2022-08-03T01:47:37;98680.63;;;21.97;73.60
14120;BME280;7138;49.246;9.100;2022-08-03T01:50:06;98668.28;;;21.78;73.69
14120;BME280;7138;49.246;9.100;2022-08-03T01:52:36;98660.72;;;21.71;74.26
14120;BME280;7138;49.246;9.100;2022-08-03T01:55:06;98660.16;;;21.64;73.92
14120;BME280;7138;49.246;9.100;2022-08-03T01:57:34;98669.63;;;21.68;74.03
14120;BME280;7138;49.246;9.100;2022-08-03T02:00:04;98660.81;;;21.69;73.17
14120;BME280;7138;49.246;9.100;2022-08-03T02:02:35;98664.31;;;21.70;73.64
14120;BME280;7138;49.246;9.100;2022-08-03T02:05:06;98657.66;;;21.61;73.64
14120;BME280;7138;49.246;9.100;2022-08-03T02:07:35;98653.47;;;21.57;74.07
14120;BME280;7138;49.246;9.100;2022-08-03T02:10:05;98660.69;;;21.52;74.02
14120;BME280;7138;49.246;9.100;2022-08-03T02:12:33;98651.25;;;21.48;74.11
14120;BME280;7138;49.246;9.100;2022-08-03T02:15:04;98658.34;;;21.46;74.43
14120;BME280;7138;49.246;9.100;2022-08-03T02:17:33;98657.81;;;21.40;75.21
14120;BME280;7138;49.246;9.100;2022-08-03T02:20:01;98661.53;;;21.34;75.34
14120;BME280;7138;49.246;9.100;2022-08-03T02:22:28;98651.41;;;21.25;75.49
14120;BME280;7138;49.246;9.100;2022-08-03T02:24:56;98655.72;;;21.28;75.97
14120;BME280;7138;49.246;9.100;2022-08-03T02:27:25;98665.50;;;21.24;76.02
14120;BME280;7138;49.246;9.100;2022-08-03T02:29:57;98660.44;;;21.19;76.35
14120;BME280;7138;49.246;9.100;2022-08-03T02:32:31;98641.69;;;21.07;76.14
14120;BME280;7138;49.246;9.100;2022-08-03T02:35:01;98664.91;;;21.17;76.32
14120;BME280;7138;49.246;9.100;2022-08-03T02:37:34;98655.41;;;21.15;76.08
14120;BME280;7138;49.246;9.100;2022-08-03T02:40:05;98661.56;;;21.14;76.03
14120;BME280;7138;49.246;9.100;2022-08-03T02:42:33;98660.84;;;21.10;76.64
14120;BME280;7138;49.246;9.100;2022-08-03T02:45:05;98657.34;;;21.10;77.01
14120;BME280;7138;49.246;9.100;2022-08-03T02:47:36;98668.91;;;21.06;76.94
14120;BME280;7138;49.246;9.100;2022-08-03T02:50:07;98663.78;;;21.03;76.27
14120;BME280;7138;49.246;9.100;2022-08-03T02:52:35;98659.66;;;20.97;76.22
14120;BME280;7138;49.246;9.100;2022-08-03T02:55:03;98661.56;;;20.94;76.57
14120;BME280;7138;49.246;9.100;2022-08-03T02:57:33;98658.06;;;20.93;76.47
14120;BME280;7138;49.246;9.100;2022-08-03T03:00:00;98661.47;;;20.95;75.96
14120;BME280;7138;49.246;9.100;2022-08-03T03:02:27;98660.06;;;20.88;76.84
14120;BME280;7138;49.246;9.100;2022-08-03T03:04:56;98667.81;;;20.91;76.31
14120;BME280;7138;49.246;9.100;2022-08-03T03:07:23;98659.38;;;20.83;76.73
14120;BME280;7138;49.246;9.100;2022-08-03T03:09:51;98664.97;;;20.76;77.30
14120;BME280;7138;49.246;9.100;2022-08-03T03:12:18;98661.78;;;20.67;77.72
14120;BME280;7138;49.246;9.100;2022-08-03T03:14:46;98665.47;;;20.63;77.83
14120;BME280;7138;49.246;9.100;2022-08-03T03:17:15;98660.16;;;20.65;77.49
14120;BME280;7138;49.246;9.100;2022-08-03T03:19:43;98668.88;;;20.65;78.17
14120;BME280;7138;49.246;9.100;2022-08-03T03:22:13;98661.78;;;20.67;77.97
14120;BME280;7138;49.246;9.100;2022-08-03T03:24:41;98671.38;;;20.68;77.87
14120;BME280;7138;49.246;9.100;2022-08-03T03:27:09;98671.53;;;20.65;77.96
14120;BME280;7138;49.246;9.100;2022-08-03T03:29:36;98667.03;;;20.67;77.13
14120;BME280;7138;49.246;9.100;2022-08-03T03:32:02;98664.75;;;20.60;77.46
14120;BME280;7138;49.246;9.100;2022-08-03T03:34:29;98667.16;;;20.64;77.08
14120;BME280;7138;49.246;9.100;2022-08-03T03:36:55;98660.22;;;20.63;77.47
14120;BME280;7138;49.246;9.100;2022-08-03T03:39:22;98657.78;;;20.59;77.77
14120;BME280;7138;49.246;9.100;2022-08-03T03:41:48;98656.38;;;20.50;77.44
14120;BME280;7138;49.246;9.100;2022-08-03T03:44:15;98652.03;;;20.49;78.06
14120;BME280;7138;49.246;9.100;2022-08-03T03:46:41;98653.69;;;20.52;77.73
14120;BME280;7138;49.246;9.100;2022-08-03T03:49:08;98654.53;;;20.52;77.45
14120;BME280;7138;49.246;9.100;2022-08-03T03:51:34;98659.91;;;20.49;77.58
14120;BME280;7138;49.246;9.100;2022-08-03T03:54:03;98659.50;;;20.38;78.32
14120;BME280;7138;49.246;9.100;2022-08-03T03:56:32;98651.09;;;20.30;78.47
14120;BME280;7138;49.246;9.100;2022-08-03T03:58:58;98661.50;;;20.33;78.55
14120;BME280;7138;49.246;9.100;2022-08-03T04:01:25;98657.88;;;20.36;78.41
14120;BME280;7138;49.246;9.100;2022-08-03T04:03:52;98657.88;;;20.36;78.14
14120;BME280;7138;49.246;9.100;2022-08-03T04:06:18;98655.97;;;20.39;78.18
14120;BME280;7138;49.246;9.100;2022-08-03T04:09:03;98655.16;;;20.37;78.04
14120;BME280;7138;49.246;9.100;2022-08-03T04:11:53;98660.38;;;20.39;78.27
14120;BME280;7138;49.246;9.100;2022-08-03T04:14:27;98665.81;;;20.34;78.15
14120;BME280;7138;49.246;9.100;2022-08-03T04:17:01;98662.28;;;20.35;78.04
14120;BME280;7138;49.246;9.100;2022-08-03T04:19:34;98672.00;;;20.33;78.28
14120;BME280;7138;49.246;9.100;2022-08-03T04:22:05;98669.38;;;20.33;78.19
14120;BME280;7138;49.246;9.100;2022-08-03T04:24:36;98671.19;;;20.31;79.07
14120;BME280;7138;49.246;9.100;2022-08-03T04:27:08;98672.81;;;20.34;78.54
14120;BME280;7138;49.246;9.100;2022-08-03T04:29:39;98666.66;;;20.35;78.35
14120;BME280;7138;49.246;9.100;2022-08-03T04:32:07;98677.38;;;20.30;78.87
14120;BME280;7138;49.246;9.100;2022-08-03T04:34:35;98670.53;;;20.25;78.91
14120;BME280;7138;49.246;9.100;2022-08-03T04:37:09;98673.03;;;20.29;78.71
14120;BME280;7138;49.246;9.100;2022-08-03T04:39:38;98672.38;;;20.23;78.99
14120;BME280;7138;49.246;9.100;2022-08-03T04:42:10;98671.47;;;20.24;79.10
14120;BME280;7138;49.246;9.100;2022-08-03T04:44:41;98672.44;;;20.21;79.19
14120;BME280;7138;49.246;9.100;2022-08-03T04:47:07;98681.22;;;20.20;79.98
14120;BME280;7138;49.246;9.100;2022-08-03T04:49:35;98662.25;;;20.13;80.26
14120;BME280;7138;49.246;9.100;2022-08-03T04:52:03;98675.97;;;20.20;80.63
14120;BME280;7138;49.246;9.100;2022-08-03T04:54:30;98686.50;;;20.20;81.38
14120;BME280;7138;49.246;9.100;2022-08-03T04:56:55;98679.19;;;20.28;81.88
14120;BME280;7138;49.246;9.100;2022-08-03T04:59:23;98685.91;;;20.35;81.79
14120;BME280;7138;49.246;9.100;2022-08-03T05:01:49;98685.78;;;20.38;81.84
14120;BME280;7138;49.246;9.100;2022-08-03T05:04:14;98682.78;;;20.47;80.96
14120;BME280;7138;49.246;9.100;2022-08-03T05:06:40;98684.41;;;20.71;80.51
14120;BME280;7138;49.246;9.100;2022-08-03T05:09:06;98686.22;;;21.11;80.37
14120;BME280;7138;49.246;9.100;2022-08-03T05:11:33;98683.28;;;21.76;78.70
14120;BME280;7138;49.246;9.100;2022-08-03T05:13:58;98687.78;;;22.66;76.21
14120;BME280;7138;49.246;9.100;2022-08-03T05:16:26;98684.16;;;23.70;73.06
14120;BME280;7138;49.246;9.100;2022-08-03T05:18:51;98693.97;;;24.62;70.09
14120;BME280;7138;49.246;9.100;2022-08-03T05:21:17;98687.78;;;25.37;68.18
14120;BME280;7138;49.246;9.100;2022-08-03T05:23:44;98694.56;;;26.12;66.36
14120;BME280;7138;49.246;9.100;2022-08-03T05:26:10;98701.53;;;26.94;64.85
14120;BME280;7138;49.246;9.100;2022-08-03T05:28:39;98693.56;;;27.84;62.12
14120;BME280;7138;49.246;9.100;2022-08-03T05:31:05;98696.97;;;28.59;60.29
14120;BME280;7138;49.246;9.100;2022-08-03T05:33:32;98697.03;;;29.28;59.14
14120;BME280;7138;49.246;9.100;2022-08-03T05:35:58;98705.59;;;29.89;57.08
14120;BME280;7138;49.246;9.100;2022-08-03T05:38:24;98695.63;;;30.35;56.79
14120;BME280;7138;49.246;9.100;2022-08-03T05:40:50;98710.75;;;30.89;55.04
14120;BME280;7138;49.246;9.100;2022-08-03T05:43:16;98702.09;;;31.28;54.86
14120;BME280;7138;49.246;9.100;2022-08-03T05:45:42;98707.78;;;31.86;53.57
14120;BME280;7138;49.246;9.100;2022-08-03T05:48:08;98703.53;;;32.54;52.99
14120;BME280;7138;49.246;9.100;2022-08-03T05:50:35;98711.25;;;33.16;51.72
14120;BME280;7138;49.246;9.100;2022-08-03T05:53:01;98710.03;;;33.47;50.81
14120;BME280;7138;49.246;9.100;2022-08-03T05:55:27;98712.28;;;33.71;50.12
14120;BME280;7138;49.246;9.100;2022-08-03T05:57:53;98709.38;;;33.91;49.84
14120;BME280;7138;49.246;9.100;2022-08-03T06:00:19;98716.63;;;34.18;50.34
14120;BME280;7138;49.246;9.100;2022-08-03T06:02:45;98716.31;;;34.48;49.00
14120;BME280;7138;49.246;9.100;2022-08-03T06:05:11;98716.47;;;34.92;48.03
14120;BME280;7138;49.246;9.100;2022-08-03T06:07:39;98718.94;;;35.21;47.87
14120;BME280;7138;49.246;9.100;2022-08-03T06:10:07;98714.44;;;35.47;46.41
14120;BME280;7138;49.246;9.100;2022-08-03T06:12:33;98709.66;;;35.58;46.64
14120;BME280;7138;49.246;9.100;2022-08-03T06:15:03;98718.00;;;35.73;47.05
14120;BME280;7138;49.246;9.100;2022-08-03T06:17:29;98697.25;;;35.99;46.49
14120;BME280;7138;49.246;9.100;2022-08-03T06:19:55;98714.97;;;36.36;46.42
14120;BME280;7138;49.246;9.100;2022-08-03T06:22:21;98718.88;;;36.41;44.93
14120;BME280;7138;49.246;9.100;2022-08-03T06:24:48;98722.44;;;36.50;45.39
14120;BME280;7138;49.246;9.100;2022-08-03T06:27:15;98711.69;;;36.58;45.67
14120;BME280;7138;49.246;9.100;2022-08-03T06:29:41;98718.31;;;36.72;45.45
14120;BME280;7138;49.246;9.100;2022-08-03T06:32:07;98717.28;;;36.64;44.68
14120;BME280;7138;49.246;9.100;2022-08-03T06:34:33;98713.66;;;36.48;45.15
14120;BME280;7138;49.246;9.100;2022-08-03T06:36:58;98716.78;;;36.27;46.43
14120;BME280;7138;49.246;9.100;2022-08-03T06:39:24;98709.78;;;36.08;45.98
14120;BME280;7138;49.246;9.100;2022-08-03T06:41:52;98715.34;;;35.81;46.72
14120;BME280;7138;49.246;9.100;2022-08-03T06:44:18;98712.53;;;35.39;46.82
14120;BME280;7138;49.246;9.100;2022-08-03T06:46:44;98712.25;;;34.89;47.32
14120;BME280;7138;49.246;9.100;2022-08-03T06:49:10;98712.84;;;34.66;47.04
14120;BME280;7138;49.246;9.100;2022-08-03T06:51:36;98708.06;;;34.32;48.11
14120;BME280;7138;49.246;9.100;2022-08-03T06:54:01;98715.00;;;33.98;48.69
14120;BME280;7138;49.246;9.100;2022-08-03T06:56:27;98707.22;;;33.58;48.75
14120;BME280;7138;49.246;9.100;2022-08-03T06:58:55;98711.25;;;33.16;50.01
14120;BME280;7138;49.246;9.100;2022-08-03T07:01:21;98718.25;;;32.78;50.85
14120;BME280;7138;49.246;9.100;2022-08-03T07:03:47;98714.50;;;32.51;51.61
14120;BME280;7138;49.246;9.100;2022-08-03T07:06:12;98719.66;;;32.23;50.79
14120;BME280;7138;49.246;9.100;2022-08-03T07:08:38;98716.28;;;31.91;51.84
14120;BME280;7138;49.246;9.100;2022-08-03T07:11:04;98714.09;;;31.75;52.00
14120;BME280;7138;49.246;9.100;2022-08-03T07:13:30;98713.38;;;31.73;52.56
14120;BME280;7138;49.246;9.100;2022-08-03T07:15:57;98715.31;;;31.71;52.81
14120;BME280;7138;49.246;9.100;2022-08-03T07:18:23;98716.13;;;31.62;52.74
14120;BME280;7138;49.246;9.100;2022-08-03T07:20:49;98714.84;;;31.57;52.77
14120;BME280;7138;49.246;9.100;2022-08-03T07:23:15;98715.69;;;31.57;53.05
14120;BME280;7138;49.246;9.100;2022-08-03T07:25:40;98711.09;;;31.69;53.04
14120;BME280;7138;49.246;9.100;2022-08-03T07:28:06;98709.84;;;31.73;52.08
14120;BME280;7138;49.246;9.100;2022-08-03T07:30:32;98710.44;;;31.76;52.07
14120;BME280;7138;49.246;9.100;2022-08-03T07:33:01;98705.00;;;31.87;53.02
14120;BME280;7138;49.246;9.100;2022-08-03T07:35:27;98713.75;;;31.99;52.10
14120;BME280;7138;49.246;9.100;2022-08-03T07:37:53;98710.66;;;31.94;52.62
14120;BME280;7138;49.246;9.100;2022-08-03T07:40:19;98699.69;;;31.97;52.79
14120;BME280;7138;49.246;9.100;2022-08-03T07:42:45;98702.22;;;31.99;52.95
14120;BME280;7138;49.246;9.100;2022-08-03T07:45:11;98698.91;;;32.06;52.23
14120;BME280;7138;49.246;9.100;2022-08-03T07:47:36;98708.25;;;32.21;53.06
14120;BME280;7138;49.246;9.100;2022-08-03T07:50:06;98706.19;;;32.34;53.26
14120;BME280;7138;49.246;9.100;2022-08-03T07:52:32;98701.66;;;32.44;53.27
14120;BME280;7138;49.246;9.100;2022-08-03T07:55:20;98702.31;;;32.58;52.17
14120;BME280;7138;49.246;9.100;2022-08-03T07:57:46;98704.44;;;32.73;52.16
14120;BME280;7138;49.246;9.100;2022-08-03T08:00:16;98708.97;;;32.92;52.47
14120;BME280;7138;49.246;9.100;2022-08-03T08:02:43;98706.81;;;33.05;51.14
14120;BME280;7138;49.246;9.100;2022-08-03T08:05:12;98701.09;;;33.10;50.40
14120;BME280;7138;49.246;9.100;2022-08-03T08:07:38;98711.38;;;33.14;51.26
14120;BME280;7138;49.246;9.100;2022-08-03T08:10:08;98707.38;;;32.99;50.52
14120;BME280;7138;49.246;9.100;2022-08-03T08:12:35;98697.50;;;32.90;51.12
14120;BME280;7138;49.246;9.100;2022-08-03T08:15:01;98706.00;;;32.95;51.40
14120;BME280;7138;49.246;9.100;2022-08-03T08:17:27;98698.22;;;33.01;51.54
14120;BME280;7138;49.246;9.100;2022-08-03T08:19:53;98705.88;;;33.16;51.55
14120;BME280;7138;49.246;9.100;2022-08-03T08:22:20;98699.22;;;33.20;50.71
14120;BME280;7138;49.246;9.100;2022-08-03T08:24:46;98702.34;;;33.25;52.21
14120;BME280;7138;49.246;9.100;2022-08-03T08:27:13;98701.88;;;33.39;51.97
14120;BME280;7138;49.246;9.100;2022-08-03T08:29:39;98692.25;;;33.56;51.11
14120;BME280;7138;49.246;9.100;2022-08-03T08:32:05;98698.59;;;33.74;51.41
14120;BME280;7138;49.246;9.100;2022-08-03T08:34:31;98702.78;;;33.86;51.83
14120;BME280;7138;49.246;9.100;2022-08-03T08:36:57;98697.59;;;34.02;50.64
14120;BME280;7138;49.246;9.100;2022-08-03T08:39:25;98695.25;;;34.26;51.07
14120;BME280;7138;49.246;9.100;2022-08-03T08:41:51;98693.53;;;34.52;50.73
14120;BME280;7138;49.246;9.100;2022-08-03T08:44:17;98698.16;;;34.78;49.91
14120;BME280;7138;49.246;9.100;2022-08-03T08:46:43;98700.63;;;35.06;49.48
14120;BME280;7138;49.246;9.100;2022-08-03T08:49:11;98702.34;;;35.25;49.13
14120;BME280;7138;49.246;9.100;2022-08-03T08:51:44;98699.69;;;35.33;49.90
14120;BME280;7138;49.246;9.100;2022-08-03T08:54:14;98698.03;;;35.32;49.54
14120;BME280;7138;49.246;9.100;2022-08-03T08:56:43;98691.41;;;35.27;48.60
14120;BME280;7138;49.246;9.100;2022-08-03T08:59:10;98696.97;;;35.25;49.18
14120;BME280;7138;49.246;9.100;2022-08-03T09:01:36;98692.13;;;35.29;49.45
14120;BME280;7138;49.246;9.100;2022-08-03T09:04:05;98690.69;;;35.42;50.53
14120;BME280;7138;49.246;9.100;2022-08-03T09:06:31;98687.03;;;35.51;49.25
14120;BME280;7138;49.246;9.100;2022-08-03T09:08:57;98696.22;;;35.58;49.31
14120;BME280;7138;49.246;9.100;2022-08-03T09:11:23;98686.88;;;35.71;49.46
14120;BME280;7138;49.246;9.100;2022-08-03T09:13:50;98685.69;;;35.73;48.77
14120;BME280;7138;49.246;9.100;2022-08-03T09:16:19;98692.50;;;35.85;48.86
14120;BME280;7138;49.246;9.100;2022-08-03T09:18:48;98687.19;;;36.01;49.48
14120;BME280;7138;49.246;9.100;2022-08-03T09:21:21;98685.75;;;36.15;49.00
14120;BME280;7138;49.246;9.100;2022-08-03T09:23:49;98688.84;;;36.28;48.56
14120;BME280;7138;49.246;9.100;2022-08-03T09:26:23;98681.72;;;36.19;48.54
14120;BME280;7138;49.246;9.100;2022-08-03T09:29:00;98686.13;;;36.20;48.41
14120;BME280;7138;49.246;9.100;2022-08-03T09:31:35;98689.84;;;36.27;49.46
14120;BME280;7138;49.246;9.100;2022-08-03T09:34:03;98673.38;;;36.38;47.57
14120;BME280;7138;49.246;9.100;2022-08-03T09:36:35;98680.69;;;36.54;48.11
14120;BME280;7138;49.246;9.100;2022-08-03T09:39:03;98682.38;;;36.55;48.01
14120;BME280;7138;49.246;9.100;2022-08-03T09:41:31;98673.28;;;36.64;47.45
14120;BME280;7138;49.246;9.100;2022-08-03T09:43:59;98672.78;;;36.85;47.24
14120;BME280;7138;49.246;9.100;2022-08-03T09:46:25;98673.34;;;36.96;47.26
14120;BME280;7138;49.246;9.100;2022-08-03T09:48:53;98674.19;;;37.13;46.43
14120;BME280;7138;49.246;9.100;2022-08-03T09:51:23;98673.00;;;37.32;46.95
14120;BME280;7138;49.246;9.100;2022-08-03T09:53:50;98667.41;;;37.33;45.94
14120;BME280;7138;49.246;9.100;2022-08-03T09:56:16;98671.47;;;37.45;45.63
14120;BME280;7138;49.246;9.100;2022-08-03T09:58:45;98668.09;;;37.59;45.39
14120;BME280;7138;49.246;9.100;2022-08-03T10:01:13;98665.41;;;37.59;45.18
14120;BME280;7138;49.246;9.100;2022-08-03T10:03:40;98671.41;;;37.78;44.57
14120;BME280;7138;49.246;9.100;2022-08-03T10:06:14;98675.13;;;37.76;44.47
14120;BME280;7138;49.246;9.100;2022-08-03T10:08:41;98666.00;;;37.94;44.65
14120;BME280;7138;49.246;9.100;2022-08-03T10:11:07;98664.91;;;38.11;44.19
14120;BME280;7138;49.246;9.100;2022-08-03T10:13:33;98658.44;;;38.20;44.16
14120;BME280;7138;49.246;9.100;2022-08-03T10:16:00;98660.72;;;38.31;43.92
14120;BME280;7138;49.246;9.100;2022-08-03T10:18:30;98661.56;;;38.32;43.93
14120;BME280;7138;49.246;9.100;2022-08-03T10:21:03;98651.72;;;38.47;42.80
14120;BME280;7138;49.246;9.100;2022-08-03T10:23:33;98655.22;;;38.55;42.74
14120;BME280;7138;49.246;9.100;2022-08-03T10:26:03;98657.31;;;38.68;43.69
14120;BME280;7138;49.246;9.100;2022-08-03T10:28:34;98652.28;;;38.65;43.35
14120;BME280;7138;49.246;9.100;2022-08-03T10:31:03;98655.75;;;38.73;42.92
14120;BME280;7138;49.246;9.100;2022-08-03T10:33:42;98652.53;;;38.78;43.18
14120;BME280;7138;49.246;9.100;2022-08-03T10:36:09;98642.66;;;38.62;44.01
14120;BME280;7138;49.246;9.100;2022-08-03T10:38:42;98642.94;;;38.67;43.83
14120;BME280;7138;49.246;9.100;2022-08-03T10:41:12;98646.47;;;38.76;43.39
14120;BME280;7138;49.246;9.100;2022-08-03T10:43:45;98632.44;;;38.72;42.74
14120;BME280;7138;49.246;9.100;2022-08-03T10:46:16;98631.78;;;38.70;43.70
14120;BME280;7138;49.246;9.100;2022-08-03T10:48:46;98642.22;;;38.82;44.13
14120;BME280;7138;49.246;9.100;2022-08-03T10:51:13;98631.41;;;38.82;44.38
14120;BME280;7138;49.246;9.100;2022-08-03T10:53:41;98629.38;;;38.75;43.63
14120;BME280;7138;49.246;9.100;2022-08-03T10:56:38;98625.22;;;38.65;44.41
14120;BME280;7138;49.246;9.100;2022-08-03T10:59:58;98613.53;;;38.72;43.94
14120;BME280;7138;49.246;9.100;2022-08-03T11:03:07;98618.56;;;38.75;43.80
14120;BME280;7138;49.246;9.100;2022-08-03T11:05:38;98619.81;;;38.65;44.00
14120;BME280;7138;49.246;9.100;2022-08-03T11:08:29;98624.94;;;38.83;44.27
14120;BME280;7138;49.246;9.100;2022-08-03T11:10:59;98619.16;;;38.86;43.23
14120;BME280;7138;49.246;9.100;2022-08-03T11:13:29;98619.38;;;38.84;44.09
14120;BME280;7138;49.246;9.100;2022-08-03T11:16:01;98614.44;;;38.88;44.36
14120;BME280;7138;49.246;9.100;2022-08-03T11:18:28;98614.28;;;39.04;44.13
14120;BME280;7138;49.246;9.100;2022-08-03T11:20:58;98609.94;;;39.17;44.27
14120;BME280;7138;49.246;9.100;2022-08-03T11:23:42;98604.59;;;39.09;43.53
14120;BME280;7138;49.246;9.100;2022-08-03T11:26:11;98600.66;;;38.97;43.42
14120;BME280;7138;49.246;9.100;2022-08-03T11:28:38;98603.16;;;38.99;45.00
14120;BME280;7138;49.246;9.100;2022-08-03T11:31:53;98604.19;;;38.98;43.83
14120;BME280;7138;49.246;9.100;2022-08-03T11:34:19;98597.59;;;39.00;43.74
14120;BME280;7138;49.246;9.100;2022-08-03T11:37:32;98600.59;;;39.20;43.05
14120;BME280;7138;49.246;9.100;2022-08-03T11:39:58;98589.53;;;39.07;43.20
14120;BME280;7138;49.246;9.100;2022-08-03T11:42:41;98591.81;;;39.18;43.35
14120;BME280;7138;49.246;9.100;2022-08-03T11:45:09;98591.81;;;39.18;42.93
14120;BME280;7138;49.246;9.100;2022-08-03T11:47:38;98589.53;;;39.29;42.82
14120;BME280;7138;49.246;9.100;2022-08-03T11:50:06;98594.94;;;39.44;42.62
14120;BME280;7138;49.246;9.100;2022-08-03T11:52:40;98588.63;;;39.52;42.44
14120;BME280;7138;49.246;9.100;2022-08-03T11:55:13;98581.13;;;39.39;41.95
14120;BME280;7138;49.246;9.100;2022-08-03T11:57:39;98583.16;;;39.22;42.30
14120;BME280;7138;49.246;9.100;2022-08-03T12:00:23;98580.91;;;39.11;41.95
14120;BME280;7138;49.246;9.100;2022-08-03T12:02:59;98574.13;;;38.93;42.44
14120;BME280;7138;49.246;9.100;2022-08-03T12:05:39;98568.13;;;38.83;43.82
14120;BME280;7138;49.246;9.100;2022-08-03T12:08:09;98570.00;;;38.59;42.45
14120;BME280;7138;49.246;9.100;2022-08-03T12:10:37;98570.50;;;38.63;43.60
14120;BME280;7138;49.246;9.100;2022-08-03T12:13:05;98568.78;;;38.62;43.27
14120;BME280;7138;49.246;9.100;2022-08-03T12:15:35;98573.38;;;38.61;43.02
14120;BME280;7138;49.246;9.100;2022-08-03T12:18:03;98571.91;;;38.73;43.73
14120;BME280;7138;49.246;9.100;2022-08-03T12:20:31;98566.97;;;38.77;42.49
14120;BME280;7138;49.246;9.100;2022-08-03T12:23:02;98566.09;;;38.85;42.68
14120;BME280;7138;49.246;9.100;2022-08-03T12:25:32;98551.28;;;38.95;43.55
14120;BME280;7138;49.246;9.100;2022-08-03T12:28:11;98560.25;;;38.96;42.45
14120;BME280;7138;49.246;9.100;2022-08-03T12:30:38;98562.66;;;38.91;42.50
14120;BME280;7138;49.246;9.100;2022-08-03T12:33:17;98545.38;;;38.92;41.98
14120;BME280;7138;49.246;9.100;2022-08-03T12:35:45;98550.00;;;39.06;42.27
14120;BME280;7138;49.246;9.100;2022-08-03T12:38:12;98553.06;;;39.03;41.30
14120;BME280;7138;49.246;9.100;2022-08-03T12:40:44;98542.72;;;39.06;42.74
14120;BME280;7138;49.246;9.100;2022-08-03T12:43:12;98543.91;;;39.04;42.16
14120;BME280;7138;49.246;9.100;2022-08-03T12:45:39;98549.25;;;39.12;42.10
14120;BME280;7138;49.246;9.100;2022-08-03T12:48:08;98542.44;;;39.16;41.93
14120;BME280;7138;49.246;9.100;2022-08-03T12:50:38;98547.09;;;39.22;42.08
14120;BME280;7138;49.246;9.100;2022-08-03T12:53:07;98541.69;;;39.22;42.84
14120;BME280;7138;49.246;9.100;2022-08-03T12:55:33;98542.50;;;39.30;42.34
14120;BME280;7138;49.246;9.100;2022-08-03T12:58:01;98544.50;;;39.43;41.97
14120;BME280;7138;49.246;9.100;2022-08-03T13:00:28;98546.56;;;39.41;41.81
14120;BME280;7138;49.246;9.100;2022-08-03T13:03:00;98540.69;;;39.23;42.86
14120;BME280;7138;49.246;9.100;2022-08-03T13:05:27;98540.41;;;39.18;41.15
14120;BME280;7138;49.246;9.100;2022-08-03T13:07:53;98529.88;;;39.23;41.52
14120;BME280;7138;49.246;9.100;2022-08-03T13:10:28;98536.13;;;39.38;42.29
14120;BME280;7138;49.246;9.100;2022-08-03T13:12:55;98531.72;;;39.37;42.03
14120;BME280;7138;49.246;9.100;2022-08-03T13:15:25;98536.50;;;39.35;41.92
14120;BME280;7138;49.246;9.100;2022-08-03T13:17:53;98536.22;;;39.45;42.34
14120;BME280;7138;49.246;9.100;2022-08-03T13:20:19;98536.75;;;39.40;41.42
14120;BME280;7138;49.246;9.100;2022-08-03T13:22:46;98532.09;;;39.34;41.00